Time;durP1;ratioP1;P1;durP2;ratioP2;P2;SDS_P1;SDS_P2;PMS_P1;PMS_P2;Temp;Humidity;BMP_temperature;BMP_pressure;BME280_temperature;BME280_humidity;BME280_pressure;Samples;Min_cycle;Max_cycle;Signal;HPM_P1;HPM_P2
2021/07/28 00:02:05;;;;;;;;;;;17.00;99.90;;;15.79;97.37;100739.41;3550267;39;103970;-39
2021/07/28 00:04:37;;;;;;;;;;;17.00;99.90;;;15.78;97.26;100742.38;3550040;39;102426;-40
2021/07/28 00:07:07;;;;;;;;;;;17.00;99.90;;;15.73;96.83;100737.63;3550074;39;103053;-39
2021/07/28 00:09:35;;;;;;;;;;;17.00;99.90;;;15.78;96.62;100740.47;3550315;39;102436;-39
2021/07/28 00:12:02;;;;;;;;;;;17.00;99.90;;;15.79;96.54;100736.66;3550314;39;102296;-39
2021/07/28 00:14:30;;;;;;;;;;;17.00;99.90;;;15.80;96.47;100734.72;3550772;39;102081;-40
2021/07/28 00:16:58;;;;;;;;;;;17.00;99.90;;;15.77;96.34;100729.72;3549970;39;102275;-39
2021/07/28 00:19:29;;;;;;;;;;;17.00;99.90;;;15.77;96.63;100729.72;3550528;39;102303;-39
2021/07/28 00:24:42;;;;;;;;;;;17.00;99.90;;;15.77;96.63;100727.78;3550168;39;102782;-39
2021/07/28 00:27:09;;;;;;;;;;;17.00;99.90;;;15.75;96.69;100721.72;3550276;39;104082;-40
2021/07/28 00:29:40;;;;;;;;;;;17.00;99.90;;;15.73;96.62;100717.56;3550420;39;102137;-40
2021/07/28 00:32:07;;;;;;;;;;;17.00;99.90;;;15.66;96.48;100718.56;3550511;39;102246;-39
2021/07/28 00:34:34;;;;;;;;;;;17.00;99.90;;;15.66;96.36;100717.72;3549854;39;102329;-39
2021/07/28 00:37:02;;;;;;;;;;;16.90;99.90;;;15.65;96.82;100710.53;3550223;39;103207;-39
2021/07/28 00:39:29;;;;;;;;;;;16.90;99.90;;;15.64;96.82;100719.88;3550256;39;102300;-39
2021/07/28 00:41:56;;;;;;;;;;;16.90;99.90;;;15.65;96.80;100711.41;3550049;39;102360;-39
2021/07/28 00:44:23;;;;;;;;;;;16.90;99.90;;;15.64;97.42;100708.88;3549824;39;102354;-39
2021/07/28 00:46:50;;;;;;;;;;;16.90;99.90;;;15.66;97.17;100704.81;3550130;39;103293;-39
2021/07/28 00:49:18;;;;;;;;;;;16.90;99.90;;;15.68;97.25;100699.91;3549984;39;102363;-40
2021/07/28 00:51:46;;;;;;;;;;;16.90;99.90;;;15.71;97.08;100703.22;3550216;39;102108;-39
2021/07/28 00:54:13;;;;;;;;;;;16.90;99.90;;;15.66;97.13;100702.06;3550122;39;102901;-39
2021/07/28 00:56:42;;;;;;;;;;;16.90;99.90;;;15.68;97.14;100707.28;3549977;39;102979;-39
2021/07/28 00:59:10;;;;;;;;;;;16.90;99.90;;;15.72;96.43;100694.72;3552315;39;102376;-39
2021/07/28 01:01:37;;;;;;;;;;;17.00;99.90;;;15.69;96.09;100700.72;3553532;39;104020;-39
2021/07/28 01:04:04;;;;;;;;;;;16.90;99.90;;;15.67;95.88;100698.22;3553265;39;102236;-39
2021/07/28 01:06:32;;;;;;;;;;;16.90;99.90;;;15.63;95.80;100696.22;3553079;39;102340;-39
2021/07/28 01:09:00;;;;;;;;;;;16.90;99.90;;;15.62;95.87;100695.38;3553114;39;102809;-39
2021/07/28 01:11:28;;;;;;;;;;;16.90;99.90;;;15.63;96.11;100693.47;3553065;39;102269;-39
2021/07/28 01:13:55;;;;;;;;;;;16.90;99.90;;;15.57;95.39;100694.47;3552965;39;102445;-38
2021/07/28 01:16:25;;;;;;;;;;;16.80;99.90;;;15.50;95.86;100694.63;3544230;39;104828;-39
2021/07/28 01:18:53;;;;;;;;;;;16.80;99.90;;;15.48;96.39;100686.63;3553052;39;102247;-41
2021/07/28 01:21:20;;;;;;;;;;;16.80;99.90;;;15.47;96.72;100698.69;3553578;39;102333;-40
2021/07/28 01:23:49;;;;;;;;;;;16.70;99.90;;;15.49;97.07;100690.22;3552962;39;102099;-39
2021/07/28 01:26:17;;;;;;;;;;;16.70;99.90;;;15.48;97.57;100694.84;3552821;39;103197;-39
2021/07/28 01:28:45;;;;;;;;;;;16.80;99.90;;;15.58;97.28;100690.63;3553027;39;102131;-40
2021/07/28 01:31:16;;;;;;;;;;;16.80;99.90;;;15.54;97.41;100695.78;3553193;39;103042;-39
2021/07/28 01:33:46;;;;;;;;;;;16.80;99.90;;;15.53;97.63;100694.13;3552741;39;102157;-39
2021/07/28 01:36:20;;;;;;;;;;;16.80;99.90;;;15.49;97.50;100691.03;3552963;39;103673;-39
2021/07/28 01:38:49;;;;;;;;;;;16.80;99.90;;;15.56;97.42;100693.63;3553238;39;102361;-39
2021/07/28 01:41:18;;;;;;;;;;;16.80;99.90;;;15.58;97.14;100683.22;3552903;39;102210;-39
2021/07/28 01:43:45;;;;;;;;;;;16.80;99.90;;;15.57;96.31;100689.78;3552757;39;102503;-39
2021/07/28 01:46:18;;;;;;;;;;;16.80;99.90;;;15.57;96.46;100681.53;3552841;39;103413;-39
2021/07/28 01:48:45;;;;;;;;;;;16.80;99.90;;;15.62;95.91;100676.13;3552950;39;102920;-39
2021/07/28 01:51:12;;;;;;;;;;;16.90;99.90;;;15.59;95.92;100682.13;3552752;39;102476;-39
2021/07/28 01:53:41;;;;;;;;;;;16.80;99.90;;;15.57;96.27;100681.53;3552881;39;102498;-46
2021/07/28 01:56:08;;;;;;;;;;;16.80;99.90;;;15.55;96.23;100682.91;3552794;39;102249;-39
2021/07/28 02:01:08;;;;;;;;;;;16.80;99.90;;;15.51;96.17;100677.03;3550856;39;102368;-41
2021/07/28 02:03:36;;;;;;;;;;;16.80;99.90;;;15.48;95.38;100667.38;3552724;39;103020;-41
2021/07/28 02:06:03;;;;;;;;;;;16.80;99.90;;;15.51;95.88;100677.03;3552734;39;102622;-41
2021/07/28 02:08:30;;;;;;;;;;;16.80;99.90;;;15.48;96.20;100675.63;3552670;39;102429;-41
2021/07/28 02:10:59;;;;;;;;;;;16.70;99.90;;;15.52;96.45;100679.56;3550013;39;103260;-41
2021/07/28 02:13:26;;;;;;;;;;;16.80;99.90;;;15.48;96.05;100672.88;3550475;39;102458;-41
2021/07/28 02:15:53;;;;;;;;;;;16.70;99.90;;;15.39;95.50;100666.13;3550829;39;103211;-41
2021/07/28 02:18:24;;;;;;;;;;;16.70;99.90;;;15.41;95.95;100668.63;3550970;39;102889;-41
2021/07/28 02:20:51;;;;;;;;;;;16.70;99.90;;;15.38;95.48;100664.47;3550505;39;102404;-41
2021/07/28 02:23:18;;;;;;;;;;;16.70;99.90;;;15.37;95.96;100676.53;3550794;39;102770;-41
2021/07/28 02:25:45;;;;;;;;;;;16.70;99.90;;;15.38;95.48;100673.56;3550688;39;102130;-41
2021/07/28 02:28:13;;;;;;;;;;;16.70;99.90;;;15.31;94.82;100672.84;3551080;39;102432;-41
2021/07/28 02:30:40;;;;;;;;;;;16.60;99.90;;;15.24;95.19;100674.94;3550891;39;102264;-41
2021/07/28 02:33:08;;;;;;;;;;;16.60;99.90;;;15.19;95.16;100674.84;3550884;39;102375;-43
2021/07/28 02:35:35;;;;;;;;;;;16.50;99.90;;;15.11;95.35;100670.59;3550624;39;102131;-41
2021/07/28 02:38:02;;;;;;;;;;;16.40;99.90;;;15.17;95.26;100666.03;3550972;39;102347;-41
2021/07/28 02:40:30;;;;;;;;;;;16.40;99.90;;;15.17;95.79;100677.84;3550566;39;102343;-42
2021/07/28 02:42:57;;;;;;;;;;;16.50;99.90;;;15.20;96.50;100676.53;3550355;39;102433;-41
2021/07/28 02:45:24;;;;;;;;;;;16.50;99.90;;;15.23;96.96;100673.28;3550465;39;103010;-42
2021/07/28 02:47:51;;;;;;;;;;;16.50;99.90;;;15.22;97.14;100669.69;3550785;39;102427;-41
2021/07/28 02:50:18;;;;;;;;;;;16.50;99.90;;;15.25;96.99;100668.34;3550307;39;102253;-41
2021/07/28 02:52:45;;;;;;;;;;;16.50;99.90;;;15.30;97.57;100665.69;3550226;39;102225;-41
2021/07/28 02:55:13;;;;;;;;;;;16.60;99.90;;;15.33;97.00;100665.19;3549883;39;102221;-40
2021/07/28 02:57:40;;;;;;;;;;;16.60;99.90;;;15.33;96.65;100670.69;3550814;39;102505;-40
2021/07/28 03:00:08;;;;;;;;;;;16.60;99.90;;;15.34;96.81;100666.03;3550353;39;103640;-41
2021/07/28 03:02:36;;;;;;;;;;;16.60;99.90;;;15.35;96.58;100659.47;3550566;39;102939;-41
2021/07/28 03:05:04;;;;;;;;;;;16.60;99.90;;;15.36;96.63;100655.63;3550024;39;102132;-41
2021/07/28 03:07:33;;;;;;;;;;;16.60;99.90;;;15.39;96.33;100652.38;3550575;39;102183;-43
2021/07/28 03:10:02;;;;;;;;;;;16.60;99.90;;;15.31;96.24;100655.56;3550566;39;102402;-38
2021/07/28 03:12:29;;;;;;;;;;;16.60;99.90;;;15.30;96.37;100653.88;3550657;39;102121;-42
2021/07/28 03:14:57;;;;;;;;;;;16.60;99.90;;;15.28;96.13;100647.81;3549678;39;103342;-41
2021/07/28 03:17:24;;;;;;;;;;;16.60;99.90;;;15.30;96.72;100648.38;3550511;39;102332;-40
2021/07/28 03:19:52;;;;;;;;;;;16.60;99.90;;;15.33;96.59;100643.22;3549904;39;102451;-39
2021/07/28 03:22:19;;;;;;;;;;;16.60;99.90;;;15.37;96.77;100643.56;3550780;39;102335;-41
2021/07/28 03:24:46;;;;;;;;;;;16.60;99.90;;;15.37;96.64;100641.63;3550411;39;103043;-41
2021/07/28 03:27:13;;;;;;;;;;;16.60;99.90;;;15.38;97.53;100640.56;3550216;39;102354;-41
2021/07/28 03:29:40;;;;;;;;;;;16.70;99.90;;;15.41;97.01;100650.22;3550316;39;102179;-41
2021/07/28 03:32:08;;;;;;;;;;;16.70;99.90;;;15.45;97.11;100642.31;3550486;39;102173;-41
2021/07/28 03:34:37;;;;;;;;;;;16.70;99.90;;;15.46;97.11;100647.53;3550095;39;102140;-41
2021/07/28 03:37:05;;;;;;;;;;;16.70;99.90;;;15.45;96.89;100645.06;3550177;39;102248;-41
2021/07/28 03:39:33;;;;;;;;;;;16.70;99.90;;;15.45;96.75;100642.31;3550399;39;102262;-43
2021/07/28 03:42:00;;;;;;;;;;;16.70;99.90;;;15.47;97.07;100649.22;3550194;39;102406;-41
2021/07/28 03:44:32;;;;;;;;;;;16.70;99.90;;;15.49;96.83;100652.53;3550326;39;102356;-42
2021/07/28 03:46:59;;;;;;;;;;;16.80;99.90;;;15.50;96.58;100645.97;3550635;39;102426;-41
2021/07/28 03:49:27;;;;;;;;;;;16.80;99.90;;;15.55;96.31;100652.66;3550371;39;102107;-40
2021/07/28 03:51:54;;;;;;;;;;;16.80;99.90;;;15.52;96.26;100645.72;3550386;39;102324;-41
2021/07/28 03:54:21;;;;;;;;;;;16.80;99.90;;;15.61;96.05;100644.22;3549884;39;102934;-44
2021/07/28 03:56:48;;;;;;;;;;;16.80;99.90;;;15.66;95.91;100644.31;3549945;39;102372;-40
2021/07/28 03:59:15;;;;;;;;;;;16.90;99.90;;;15.66;95.90;100652.56;3550293;39;103030;-43
2021/07/28 04:01:43;;;;;;;;;;;16.90;99.90;;;15.64;95.72;100654.69;3550166;39;102154;-41
2021/07/28 04:04:10;;;;;;;;;;;16.90;99.90;;;15.68;95.02;100647.66;3550306;39;102744;-41
2021/07/28 04:06:37;;;;;;;;;;;16.90;99.90;;;15.64;95.16;100654.69;3550265;39;102720;-41
2021/07/28 04:09:05;;;;;;;;;;;16.90;99.90;;;15.67;95.75;100653.38;3550129;39;103076;-41
2021/07/28 04:11:32;;;;;;;;;;;16.90;99.90;;;15.68;95.98;100653.16;3550015;39;102448;-42
2021/07/28 04:13:59;;;;;;;;;;;16.90;99.90;;;15.67;95.78;100654.22;3550321;39;102855;-40
2021/07/28 04:16:27;;;;;;;;;;;16.90;99.90;;;15.72;95.50;100652.63;3550245;39;102209;-42
2021/07/28 04:18:58;;;;;;;;;;;17.00;99.90;;;15.75;95.10;100646.63;3550245;39;102175;-41
2021/07/28 04:21:25;;;;;;;;;;;17.00;99.90;;;15.72;95.14;100661.69;3550297;39;102235;-41
2021/07/28 04:23:52;;;;;;;;;;;17.00;99.90;;;15.74;95.18;100659.53;3549699;39;103858;-41
2021/07/28 04:26:19;;;;;;;;;;;17.00;99.90;;;15.77;95.43;100658.22;3550420;39;102119;-41
2021/07/28 04:28:47;;;;;;;;;;;17.00;99.90;;;15.78;94.78;100657.13;3550374;39;102251;-41
2021/07/28 04:31:14;;;;;;;;;;;17.00;99.90;;;15.78;95.46;100657.97;3550110;39;102266;-41
2021/07/28 04:33:42;;;;;;;;;;;17.00;99.90;;;15.81;95.85;100662.97;3549618;39;102346;-41
2021/07/28 04:36:09;;;;;;;;;;;17.00;99.90;;;15.78;95.83;100663.47;3549738;39;102198;-41
2021/07/28 04:38:37;;;;;;;;;;;17.00;99.90;;;15.78;95.68;100660.72;3550127;39;102157;-40
2021/07/28 04:41:06;;;;;;;;;;;17.00;99.90;;;15.81;95.74;100667.63;3550217;39;102429;-41
2021/07/28 04:43:34;;;;;;;;;;;17.10;99.90;;;15.85;95.78;100671.53;3549716;39;103079;-41
2021/07/28 04:46:03;;;;;;;;;;;17.10;99.90;;;15.87;95.47;100672.09;3549842;39;102464;-41
2021/07/28 04:48:30;;;;;;;;;;;17.10;99.90;;;15.91;94.67;100670.56;3549672;39;103124;-41
2021/07/28 04:50:59;;;;;;;;;;;17.10;99.90;;;15.98;94.61;100670.38;3550034;39;102349;-42
2021/07/28 04:53:29;;;;;;;;;;;17.20;99.90;;;16.02;94.72;100676.22;3550168;39;103089;-42
2021/07/28 04:55:58;;;;;;;;;;;17.20;99.90;;;16.03;94.51;100672.38;3550243;39;102255;-40
2021/07/28 04:58:26;;;;;;;;;;;17.20;99.90;;;16.04;94.72;100669.34;3549980;39;102246;-41
2021/07/28 05:00:53;;;;;;;;;;;17.20;99.90;;;16.11;94.42;100671.94;3549713;39;102356;-40
2021/07/28 05:03:22;;;;;;;;;;;17.30;99.90;;;16.13;93.59;100669.75;3549469;39;102299;-41
2021/07/28 05:05:50;;;;;;;;;;;17.30;99.90;;;16.04;92.64;100663.03;3549891;39;102246;-41
2021/07/28 05:08:17;;;;;;;;;;;17.30;99.90;;;16.09;92.90;100671.34;3549604;39;103995;-41
2021/07/28 05:10:47;;;;;;;;;;;17.30;99.90;;;16.09;93.15;100669.47;3549663;39;102401;-41
2021/07/28 05:13:16;;;;;;;;;;;17.30;99.90;;;16.15;93.27;100672.28;3549368;39;103882;-41
2021/07/28 05:15:43;;;;;;;;;;;17.30;99.90;;;16.17;92.79;100670.91;3549573;39;102823;-42
2021/07/28 05:18:11;;;;;;;;;;;17.40;99.90;;;16.18;92.79;100672.59;3550508;39;103167;-41
2021/07/28 05:20:38;;;;;;;;;;;17.40;99.90;;;16.16;92.89;100669.25;3549836;39;102782;-41
2021/07/28 05:23:05;;;;;;;;;;;17.40;99.90;;;16.18;92.83;100667.09;3549441;39;102142;-44
2021/07/28 05:25:33;;;;;;;;;;;17.40;99.90;;;16.16;92.84;100666.50;3549696;39;102130;-41
2021/07/28 05:28:00;;;;;;;;;;;17.40;99.90;;;16.23;92.79;100664.41;3549369;39;103294;-42
2021/07/28 05:30:28;;;;;;;;;;;17.40;99.90;;;16.31;92.77;100662.31;3549543;39;102540;-42
2021/07/28 05:32:55;;;;;;;;;;;17.50;99.90;;;16.37;92.68;100655.78;3549574;39;103363;-41
2021/07/28 05:35:22;;;;;;;;;;;17.50;99.90;;;16.32;92.75;100645.53;3549622;39;102211;-40
2021/07/28 05:37:59;;;;;;;;;;;17.60;99.90;;;16.36;92.79;100648.59;3549788;39;102363;-41
2021/07/28 05:40:27;;;;;;;;;;;17.60;99.90;;;16.32;92.26;100648.31;3549787;39;102982;-40
2021/07/28 05:42:55;;;;;;;;;;;17.50;99.90;;;16.35;91.45;100641.44;3549732;39;103087;-41
2021/07/28 05:45:24;;;;;;;;;;;17.60;99.90;;;16.41;91.03;100650.59;3550164;39;102393;-43
2021/07/28 05:47:51;;;;;;;;;;;17.60;99.90;;;16.43;90.03;100651.97;3551243;39;102878;-41
2021/07/28 05:50:18;;;;;;;;;;;17.60;99.90;;;16.45;91.30;100649.84;3550801;39;102747;-42
2021/07/28 05:52:46;;;;;;;;;;;17.60;99.90;;;16.45;91.26;100649.00;3550915;39;104031;-41
2021/07/28 05:55:13;;;;;;;;;;;17.60;99.90;;;16.47;90.97;100652.31;3550719;39;102218;-41
2021/07/28 05:57:40;;;;;;;;;;;17.60;99.90;;;16.47;91.37;100649.56;3551238;39;102239;-41
2021/07/28 06:00:09;;;;;;;;;;;17.70;99.90;;;16.51;90.79;100656.22;3551118;39;102456;-41
2021/07/28 06:02:36;;;;;;;;;;;17.70;99.90;;;16.57;90.46;100652.44;3550857;39;103178;-41
2021/07/28 06:05:04;;;;;;;;;;;17.70;99.90;;;16.64;91.04;100647.59;3550801;39;102137;-41
2021/07/28 06:07:31;;;;;;;;;;;17.70;99.90;;;16.71;89.85;100647.38;3551515;39;102364;-41
2021/07/28 06:09:58;;;;;;;;;;;17.80;99.90;;;16.80;90.13;100647.72;3550547;39;102623;-41
2021/07/28 06:12:26;;;;;;;;;;;17.90;99.90;;;16.81;89.34;100652.16;3550917;39;104077;-41
2021/07/28 06:14:53;;;;;;;;;;;18.00;99.90;;;16.88;89.72;100649.19;3550719;39;102133;-41
2021/07/28 06:17:20;;;;;;;;;;;18.00;99.90;;;16.89;89.49;100657.22;3550825;39;102466;-41
2021/07/28 06:19:47;;;;;;;;;;;18.00;99.90;;;16.90;90.35;100652.53;3550772;39;102287;-41
2021/07/28 06:22:14;;;;;;;;;;;18.00;99.90;;;16.85;89.51;100647.81;3550798;39;102258;-41
2021/07/28 06:24:42;;;;;;;;;;;18.00;99.90;;;16.82;89.85;100646.41;3550315;39;102444;-40
2021/07/28 06:27:09;;;;;;;;;;;18.00;99.90;;;16.82;89.81;100645.56;3551019;39;104178;-41
2021/07/28 06:29:36;;;;;;;;;;;18.00;99.90;;;16.73;89.40;100647.13;3550584;39;102733;-40
2021/07/28 06:32:19;;;;;;;;;;;17.90;99.90;;;16.75;89.48;100653.19;3551453;39;103159;-41
2021/07/28 06:34:46;;;;;;;;;;;17.90;99.90;;;16.69;90.18;100649.53;3550783;39;103122;-44
2021/07/28 06:37:14;;;;;;;;;;;17.90;99.90;;;16.70;89.69;100655.91;3550797;39;102238;-41
2021/07/28 06:39:42;;;;;;;;;;;17.90;99.90;;;16.71;89.90;100652.91;3550971;39;102192;-41
2021/07/28 06:42:09;;;;;;;;;;;17.90;99.90;;;16.73;90.09;100660.88;3551194;39;103118;-43
2021/07/28 06:44:36;;;;;;;;;;;17.90;99.90;;;16.72;90.09;100662.81;3551105;39;102351;-40
2021/07/28 06:47:04;;;;;;;;;;;17.90;99.90;;;16.71;91.11;100655.66;3551000;39;103114;-40
2021/07/28 06:49:31;;;;;;;;;;;17.90;99.90;;;16.73;92.31;100663.63;3550419;39;102624;-41
2021/07/28 06:51:58;;;;;;;;;;;17.90;99.90;;;16.71;92.60;100658.41;3550629;39;104219;-41
2021/07/28 06:54:25;;;;;;;;;;;17.90;99.90;;;16.79;93.09;100657.09;3550389;39;102373;-41
2021/07/28 06:56:53;;;;;;;;;;;17.90;99.90;;;16.91;93.39;100660.53;3550317;39;102178;-40
2021/07/28 06:59:20;;;;;;;;;;;18.00;99.90;;;16.96;93.87;100657.00;3550732;39;102401;-41
2021/07/28 07:01:50;;;;;;;;;;;18.10;99.90;;;17.01;93.80;100659.84;3550889;39;102271;-41
2021/07/28 07:04:17;;;;;;;;;;;18.10;99.90;;;17.08;93.74;100662.38;3550579;39;102456;-41
2021/07/28 07:06:44;;;;;;;;;;;18.10;99.90;;;17.20;93.18;100660.31;3550688;39;103078;-41
2021/07/28 07:09:12;;;;;;;;;;;18.20;99.90;;;17.31;92.06;100658.50;3550402;39;102860;-41
2021/07/28 07:11:39;;;;;;;;;;;18.40;99.90;;;17.38;91.00;100661.03;3550647;39;102152;-41
2021/07/28 07:14:06;;;;;;;;;;;18.40;99.90;;;17.45;91.42;100653.38;3550790;39;102366;-42
2021/07/28 07:16:34;;;;;;;;;;;18.50;99.90;;;17.52;91.33;100653.16;3550527;39;102354;-41
2021/07/28 07:19:01;;;;;;;;;;;18.50;99.90;;;17.57;91.64;100650.44;3550350;39;102966;-41
2021/07/28 07:21:29;;;;;;;;;;;18.60;99.90;;;17.62;91.12;100647.69;3550463;39;104187;-42
2021/07/28 07:23:56;;;;;;;;;;;18.60;99.90;;;17.63;90.35;100660.41;3550479;39;102336;-38
2021/07/28 07:26:23;;;;;;;;;;;18.70;99.90;;;17.73;90.53;100653.28;3550558;39;102264;-38
2021/07/28 07:28:50;;;;;;;;;;;18.70;99.90;;;17.76;89.67;100655.50;3550774;39;103374;-40
2021/07/28 07:31:18;;;;;;;;;;;18.80;99.90;;;17.68;89.62;100667.91;3550634;39;102135;-41
2021/07/28 07:33:45;;;;;;;;;;;18.70;99.90;;;17.69;90.14;100656.56;3550725;39;102726;-41
2021/07/28 07:36:18;;;;;;;;;;;18.70;99.90;;;17.66;90.66;100670.09;3550409;39;102325;-40
2021/07/28 07:38:46;;;;;;;;;;;18.70;99.90;;;17.60;91.39;100671.13;3550957;39;102342;-41
2021/07/28 07:41:13;;;;;;;;;;;18.70;99.90;;;17.56;91.49;100687.38;3550590;39;103345;-40
2021/07/28 07:43:41;;;;;;;;;;;18.70;99.90;;;17.49;91.97;100689.50;3550718;39;102261;-40
2021/07/28 07:46:08;;;;;;;;;;;18.70;99.90;;;17.40;92.12;100686.41;3550498;39;102169;-41
2021/07/28 07:48:36;;;;;;;;;;;18.60;99.90;;;17.16;92.24;100683.13;3550172;39;102527;-40
2021/07/28 07:51:03;;;;;;;;;;;18.50;99.90;;;16.98;92.04;100693.44;3550436;39;104147;-41
2021/07/28 07:53:31;;;;;;;;;;;18.30;99.90;;;17.05;93.61;100695.97;3550678;39;102243;-41
2021/07/28 07:55:58;;;;;;;;;;;18.30;99.90;;;17.12;94.85;100693.88;3550446;39;103238;-40
2021/07/28 07:58:26;;;;;;;;;;;18.30;99.90;;;17.30;94.98;100705.59;3550086;39;102343;-40
2021/07/28 08:00:53;;;;;;;;;;;18.40;99.90;;;17.39;95.00;100691.09;3678670;22;103974;-39
2021/07/28 08:03:20;;;;;;;;;;;18.40;99.90;;;17.56;94.96;100695.66;3547344;39;102575;-39
2021/07/28 08:05:48;;;;;;;;;;;18.60;99.90;;;17.77;95.37;100687.53;3550064;39;102139;-39
2021/07/28 08:08:15;;;;;;;;;;;18.70;99.90;;;17.80;92.38;100681.50;3549830;39;102276;-39
2021/07/28 08:10:42;;;;;;;;;;;18.80;99.90;;;18.04;93.21;100689.44;3550481;39;103032;-39
2021/07/28 08:13:10;;;;;;;;;;;19.00;99.90;;;18.07;90.19;100689.69;3550605;39;102337;-39
2021/07/28 08:15:37;;;;;;;;;;;19.00;99.90;;;18.20;91.26;100691.16;3550403;39;102242;-39
2021/07/28 08:18:06;;;;;;;;;;;19.20;99.90;;;18.36;91.26;100682.97;3550762;39;102267;-40
2021/07/28 08:20:33;;;;;;;;;;;19.30;99.90;;;18.55;90.10;100678.63;3550475;39;102403;-39
2021/07/28 08:23:01;;;;;;;;;;;19.40;99.90;;;18.72;90.70;100682.31;3541203;39;102445;-39
2021/07/28 08:25:28;;;;;;;;;;;19.60;99.90;;;18.80;87.64;100685.34;3550027;39;102343;-39
2021/07/28 08:27:55;;;;;;;;;;;19.70;99.90;;;18.68;85.78;100684.75;3550207;39;102824;-39
2021/07/28 08:30:24;;;;;;;;;;;19.70;99.90;;;18.67;85.63;100685.88;3550042;39;103127;-40
2021/07/28 08:32:51;;;;;;;;;;;19.60;99.90;;;18.74;86.29;100685.63;3549978;39;102448;-40
2021/07/28 08:35:18;;;;;;;;;;;19.70;99.90;;;18.88;86.96;100689.53;3550144;39;102246;-39
2021/07/28 08:37:46;;;;;;;;;;;19.80;99.90;;;19.16;86.60;100692.13;3550098;39;102091;-40
2021/07/28 08:40:15;;;;;;;;;;;19.90;99.90;;;19.30;84.19;100696.00;3550061;39;102485;-40
2021/07/28 08:42:48;;;;;;;;;;;20.10;99.90;;;19.44;85.10;100689.94;3550449;39;102411;-39
2021/07/28 08:45:17;;;;;;;;;;;20.30;99.90;;;19.40;84.22;100693.25;3550203;39;103623;-39
2021/07/28 08:47:45;;;;;;;;;;;20.30;99.90;;;19.36;83.44;100688.53;3549984;39;102445;-39
2021/07/28 08:50:14;;;;;;;;;;;20.30;99.90;;;19.44;84.57;100699.06;3549780;39;102583;-39
2021/07/28 08:52:42;;;;;;;;;;;20.30;99.90;;;19.34;83.42;100683.28;3549871;39;102388;-40
2021/07/28 08:55:10;;;;;;;;;;;20.30;99.90;;;19.47;80.21;100695.72;3550628;39;103270;-39
2021/07/28 08:57:37;;;;;;;;;;;20.40;99.90;;;19.57;80.62;100683.84;3549958;39;102362;-39
2021/07/28 09:00:07;;;;;;;;;;;20.50;99.90;;;19.64;80.28;100681.66;3549921;39;102272;-39
2021/07/28 09:02:34;;;;;;;;;;;20.60;99.90;;;19.77;83.00;100676.66;3550329;39;102597;-39
2021/07/28 09:05:02;;;;;;;;;;;20.70;99.90;;;19.69;79.23;100691.88;3549614;39;103153;-39
2021/07/28 09:07:37;;;;;;;;;;;20.80;99.90;;;19.67;80.62;100686.63;3549916;39;102230;-39
2021/07/28 09:10:05;;;;;;;;;;;20.70;99.90;;;19.79;81.89;100678.03;3549756;39;104078;-41
2021/07/28 09:12:34;;;;;;;;;;;20.70;99.90;;;19.69;81.59;100676.09;3549790;39;102367;-39
2021/07/28 09:15:05;;;;;;;;;;;20.70;99.90;;;19.95;83.33;100687.19;3549886;39;103364;-40
2021/07/28 09:17:36;;;;;;;;;;;20.80;99.90;;;20.05;80.67;100683.56;3549955;39;102200;-39
2021/07/28 09:20:05;;;;;;;;;;;21.00;99.90;;;19.96;76.81;100680.53;3551143;39;103237;-39
2021/07/28 09:22:41;;;;;;;;;;;21.00;99.90;;;20.18;75.72;100689.63;3551545;39;102880;-40
2021/07/28 09:27:44;;;;;;;;;;;21.30;99.90;;;20.76;77.98;100686.38;3551171;39;102467;-40
2021/07/28 09:30:17;;;;;;;;;;;21.50;99.90;;;21.22;81.00;100688.06;3551056;39;102381;-40
2021/07/28 09:33:06;;;;;;;;;;;21.80;99.90;;;21.33;76.18;100693.53;3551507;39;102294;-39
2021/07/28 09:35:54;;;;;;;;;;;22.00;99.90;;;21.48;71.94;100695.34;3550802;39;102382;-39
2021/07/28 09:38:34;;;;;;;;;;;22.20;99.90;;;21.66;73.50;100686.38;3550923;39;102159;-39
2021/07/28 09:41:13;;;;;;;;;;;22.40;99.90;;;21.75;72.25;100694.91;3551016;39;102288;-40
2021/07/28 09:43:53;;;;;;;;;;;22.50;99.90;;;21.84;69.37;100686.78;3551290;39;102178;-40
2021/07/28 09:46:27;;;;;;;;;;;22.60;99.90;;;22.12;70.37;100687.03;3551252;39;103603;-40
2021/07/28 09:48:55;;;;;;;;;;;22.80;99.90;;;21.98;66.35;100681.34;3551074;39;102748;-39
2021/07/28 09:51:30;;;;;;;;;;;22.90;99.90;;;22.20;68.75;100674.47;3550907;39;102376;-40
2021/07/28 09:53:59;;;;;;;;;;;23.00;99.90;;;22.29;66.98;100683.81;3551155;39;102357;-38
2021/07/28 09:56:54;;;;;;;;;;;23.10;99.90;;;22.27;67.08;100678.53;3550992;39;102309;-39
2021/07/28 09:59:24;;;;;;;;;;;23.10;99.90;;;21.86;64.93;100672.56;3551414;39;102497;-39
2021/07/28 10:01:52;;;;;;;;;;;22.90;99.90;;;21.63;67.35;100669.44;3551234;39;102284;-40
2021/07/28 10:04:20;;;;;;;;;;;22.80;99.90;;;21.54;66.22;100672.03;3550773;39;102374;-40
2021/07/28 10:06:52;;;;;;;;;;;22.60;99.90;;;21.88;70.18;100662.84;3550893;39;102172;-40
2021/07/28 10:10:01;;;;;;;;;;;22.70;99.90;;;21.90;63.19;100668.13;3550931;39;102892;-40
2021/07/28 10:12:29;;;;;;;;;;;22.80;99.90;;;22.11;66.73;100668.72;3542614;39;103194;-39
2021/07/28 10:14:58;;;;;;;;;;;22.90;99.90;;;22.17;62.74;100659.22;3550791;39;102275;-39
2021/07/28 10:17:25;;;;;;;;;;;23.10;99.90;;;22.25;65.78;100658.53;3550781;39;103336;-39
2021/07/28 10:19:54;;;;;;;;;;;23.20;99.90;;;22.62;64.38;100660.94;3550819;39;102201;-39
2021/07/28 10:22:30;;;;;;;;;;;23.30;99.90;;;22.70;61.93;100654.69;3551375;39;103128;-39
2021/07/28 10:24:59;;;;;;;;;;;23.50;99.90;;;23.05;65.67;100658.09;3550904;39;102464;-39
2021/07/28 10:27:26;;;;;;;;;;;23.70;99.90;;;22.81;58.58;100658.16;3550970;39;103409;-39
2021/07/28 10:29:54;;;;;;;;;;;23.70;99.90;;;22.65;62.09;100657.56;3550332;39;102325;-40
2021/07/28 10:32:29;;;;;;;;;;;23.60;99.90;;;22.27;60.01;100661.84;3550217;39;102656;-40
2021/07/28 10:35:19;;;;;;;;;;;23.40;99.90;;;21.99;59.96;100667.16;3550019;39;102417;-39
2021/07/28 10:37:46;;;;;;;;;;;23.20;99.90;;;21.82;62.16;100669.56;3551036;39;102397;-40
2021/07/28 10:40:29;;;;;;;;;;;23.00;99.90;;;21.65;61.38;100662.50;3550455;39;102368;-40
2021/07/28 10:42:56;;;;;;;;;;;22.80;99.90;;;21.66;62.64;100664.16;3551155;39;103205;-42
2021/07/28 10:45:24;;;;;;;;;;;22.70;99.90;;;22.01;61.36;100654.94;3550848;39;102177;-39
2021/07/28 10:47:52;;;;;;;;;;;22.80;99.90;;;22.24;62.67;100656.09;3550614;39;102233;-39
2021/07/28 10:50:22;;;;;;;;;;;23.00;99.90;;;22.09;60.44;100649.56;3550663;39;102300;-39
2021/07/28 10:52:54;;;;;;;;;;;23.00;99.90;;;21.96;60.88;100644.72;3550207;39;102243;-40
2021/07/28 10:55:22;;;;;;;;;;;23.00;99.90;;;21.70;59.19;100651.34;3550390;39;102167;-39
2021/07/28 10:57:52;;;;;;;;;;;22.70;99.90;;;21.69;60.08;100649.69;3550768;39;103287;-40
2021/07/28 11:03:08;;;;;;;;;;;22.70;99.90;;;21.95;61.13;100651.41;3550591;39;103012;-39
2021/07/28 11:05:38;;;;;;;;;;;22.80;99.90;;;21.91;60.63;100653.13;3550910;39;102287;-38
2021/07/28 11:08:05;;;;;;;;;;;22.80;99.90;;;21.76;60.03;100643.00;3550907;39;103203;-39
2021/07/28 11:10:44;;;;;;;;;;;22.70;99.90;;;21.52;59.89;100646.50;3549953;39;102188;-39
2021/07/28 11:13:17;;;;;;;;;;;22.60;99.90;;;21.65;59.73;100640.28;3550760;39;102279;-39
2021/07/28 11:15:59;;;;;;;;;;;22.60;99.90;;;21.84;58.74;100643.16;3550288;39;102156;-39
2021/07/28 11:18:48;;;;;;;;;;;22.70;99.90;;;21.84;59.83;100643.16;3550353;39;103200;-39
2021/07/28 11:21:18;;;;;;;;;;;22.80;99.90;;;21.82;59.83;100639.84;3550419;39;102328;-39